sensor_id;sensor_type;location;lat;lon;timestamp;pressure;altitude;pressure_sealevel;temperature;humidity
70506;BME280;58032;49.820;6.274;2023-03-04T00:02:21;98419.19;;;-3.45;100.00
70506;BME280;58032;49.820;6.274;2023-03-04T00:04:48;98415.06;;;-3.52;100.00
70506;BME280;58032;49.820;6.274;2023-03-04T00:07:15;98421.03;;;-3.62;100.00
70506;BME280;58032;49.820;6.274;2023-03-04T00:09:43;98413.22;;;-3.85;100.00
70506;BME280;58032;49.820;6.274;2023-03-04T00:12:11;98416.56;;;-3.91;100.00
70506;BME280;58032;49.820;6.274;2023-03-04T00:14:38;98412.53;;;-3.94;100.00
70506;BME280;58032;49.820;6.274;2023-03-04T00:17:05;98415.41;;;-3.90;100.00
70506;BME280;58032;49.820;6.274;2023-03-04T00:19:33;98417.59;;;-3.84;100.00
70506;BME280;58032;49.820;6.274;2023-03-04T00:22:02;98413.69;;;-3.83;100.00
70506;BME280;58032;49.820;6.274;2023-03-04T00:24:30;98411.31;;;-3.84;100.00
70506;BME280;58032;49.820;6.274;2023-03-04T00:26:57;98400.41;;;-3.80;100.00
70506;BME280;58032;49.820;6.274;2023-03-04T00:29:25;98405.09;;;-3.81;100.00
70506;BME280;58032;49.820;6.274;2023-03-04T00:31:51;98407.84;;;-3.81;100.00
70506;BME280;58032;49.820;6.274;2023-03-04T00:34:19;98412.66;;;-3.90;100.00
70506;BME280;58032;49.820;6.274;2023-03-04T00:36:46;98399.00;;;-3.99;100.00
70506;BME280;58032;49.820;6.274;2023-03-04T00:39:13;98401.28;;;-4.01;100.00
70506;BME280;58032;49.820;6.274;2023-03-04T00:41:40;98398.66;;;-4.10;100.00
70506;BME280;58032;49.820;6.274;2023-03-04T00:44:07;98406.06;;;-4.23;100.00
70506;BME280;58032;49.820;6.274;2023-03-04T00:46:34;98401.81;;;-4.33;100.00
70506;BME280;58032;49.820;6.274;2023-03-04T00:49:01;98401.56;;;-4.40;100.00
70506;BME280;58032;49.820;6.274;2023-03-04T00:51:28;98403.38;;;-4.44;100.00
70506;BME280;58032;49.820;6.274;2023-03-04T00:53:55;98401.53;;;-4.52;100.00
70506;BME280;58032;49.820;6.274;2023-03-04T00:56:22;98396.94;;;-4.61;100.00
70506;BME280;58032;49.820;6.274;2023-03-04T00:58:49;98386.59;;;-4.64;100.00
70506;BME280;58032;49.820;6.274;2023-03-04T01:01:16;98388.69;;;-4.61;100.00
70506;BME280;58032;49.820;6.274;2023-03-04T01:03:43;98390.31;;;-4.47;100.00
70506;BME280;58032;49.820;6.274;2023-03-04T01:06:12;98386.44;;;-4.46;100.00
70506;BME280;58032;49.820;6.274;2023-03-04T01:08:39;98391.25;;;-4.43;100.00
70506;BME280;58032;49.820;6.274;2023-03-04T01:11:06;98393.66;;;-4.41;100.00
70506;BME280;58032;49.820;6.274;2023-03-04T01:13:33;98388.06;;;-4.45;100.00
70506;BME280;58032;49.820;6.274;2023-03-04T01:16:00;98393.06;;;-4.47;100.00
70506;BME280;58032;49.820;6.274;2023-03-04T01:18:29;98394.63;;;-4.58;100.00
70506;BME280;58032;49.820;6.274;2023-03-04T01:20:56;98388.88;;;-4.66;100.00
70506;BME280;58032;49.820;6.274;2023-03-04T01:23:24;98387.28;;;-4.67;100.00
70506;BME280;58032;49.820;6.274;2023-03-04T01:25:51;98387.75;;;-4.65;100.00
70506;BME280;58032;49.820;6.274;2023-03-04T01:28:17;98386.38;;;-4.58;100.00
70506;BME280;58032;49.820;6.274;2023-03-04T01:30:46;98382.16;;;-4.56;100.00
70506;BME280;58032;49.820;6.274;2023-03-04T01:33:14;98385.38;;;-4.54;100.00
70506;BME280;58032;49.820;6.274;2023-03-04T01:35:41;98376.22;;;-4.58;100.00
70506;BME280;58032;49.820;6.274;2023-03-04T01:38:08;98376.34;;;-4.54;100.00
70506;BME280;58032;49.820;6.274;2023-03-04T01:40:36;98374.50;;;-4.50;100.00
70506;BME280;58032;49.820;6.274;2023-03-04T01:43:04;98374.50;;;-4.50;100.00
70506;BME280;58032;49.820;6.274;2023-03-04T01:45:34;98364.22;;;-4.53;100.00
70506;BME280;58032;49.820;6.274;2023-03-04T01:48:17;98357.75;;;-4.70;100.00
70506;BME280;58032;49.820;6.274;2023-03-04T01:50:44;98361.91;;;-4.85;100.00
70506;BME280;58032;49.820;6.274;2023-03-04T01:53:23;98359.59;;;-4.95;100.00
70506;BME280;58032;49.820;6.274;2023-03-04T01:56:01;98354.69;;;-4.89;100.00
70506;BME280;58032;49.820;6.274;2023-03-04T01:58:31;98359.97;;;-4.84;100.00
70506;BME280;58032;49.820;6.274;2023-03-04T02:00:58;98357.00;;;-4.79;100.00
70506;BME280;58032;49.820;6.274;2023-03-04T02:03:25;98354.03;;;-4.74;100.00
70506;BME280;58032;49.820;6.274;2023-03-04T02:05:52;98351.66;;;-4.75;100.00
70506;BME280;58032;49.820;6.274;2023-03-04T02:08:21;98346.03;;;-4.79;100.00
70506;BME280;58032;49.820;6.274;2023-03-04T02:10:50;98346.69;;;-4.82;100.00
70506;BME280;58032;49.820;6.274;2023-03-04T02:13:18;98341.28;;;-4.91;100.00
70506;BME280;58032;49.820;6.274;2023-03-04T02:15:45;98334.78;;;-4.86;100.00
70506;BME280;58032;49.820;6.274;2023-03-04T02:18:20;98336.66;;;-4.78;100.00
70506;BME280;58032;49.820;6.274;2023-03-04T02:21:13;98335.03;;;-4.79;100.00
70506;BME280;58032;49.820;6.274;2023-03-04T02:24:02;98334.00;;;-4.87;100.00
70506;BME280;58032;49.820;6.274;2023-03-04T02:26:31;98331.56;;;-4.88;100.00
70506;BME280;58032;49.820;6.274;2023-03-04T02:29:01;98333.91;;;-4.78;100.00
70506;BME280;58032;49.820;6.274;2023-03-04T02:33:58;98327.28;;;-4.77;100.00
70506;BME280;58032;49.820;6.274;2023-03-04T02:36:26;98321.78;;;-4.77;100.00
70506;BME280;58032;49.820;6.274;2023-03-04T02:38:55;98329.56;;;-4.67;100.00
70506;BME280;58032;49.820;6.274;2023-03-04T02:41:24;98320.19;;;-4.66;100.00
70506;BME280;58032;49.820;6.274;2023-03-04T02:43:53;98327.72;;;-4.75;100.00
70506;BME280;58032;49.820;6.274;2023-03-04T02:46:22;98324.97;;;-4.75;100.00
70506;BME280;58032;49.820;6.274;2023-03-04T02:48:50;98333.81;;;-4.69;100.00
70506;BME280;58032;49.820;6.274;2023-03-04T02:51:17;98324.41;;;-4.68;100.00
70506;BME280;58032;49.820;6.274;2023-03-04T02:53:44;98333.50;;;-4.55;100.00
70506;BME280;58032;49.820;6.274;2023-03-04T02:56:11;98328.25;;;-4.36;100.00
70506;BME280;58032;49.820;6.274;2023-03-04T02:58:39;98324.94;;;-4.17;100.00
70506;BME280;58032;49.820;6.274;2023-03-04T03:01:08;98325.31;;;-3.93;100.00
70506;BME280;58032;49.820;6.274;2023-03-04T03:03:35;98328.63;;;-4.00;100.00
70506;BME280;58032;49.820;6.274;2023-03-04T03:06:03;98325.88;;;-3.88;100.00
70506;BME280;58032;49.820;6.274;2023-03-04T03:08:30;98327.38;;;-4.03;100.00
70506;BME280;58032;49.820;6.274;2023-03-04T03:10:59;98321.63;;;-3.98;100.00
70506;BME280;58032;49.820;6.274;2023-03-04T03:13:26;98322.44;;;-4.09;100.00
70506;BME280;58032;49.820;6.274;2023-03-04T03:15:54;98319.31;;;-3.83;100.00
70506;BME280;58032;49.820;6.274;2023-03-04T03:18:23;98322.75;;;-3.61;100.00
70506;BME280;58032;49.820;6.274;2023-03-04T03:20:49;98321.84;;;-3.53;100.00
70506;BME280;58032;49.820;6.274;2023-03-04T03:23:16;98320.22;;;-3.54;100.00
70506;BME280;58032;49.820;6.274;2023-03-04T03:25:43;98320.44;;;-3.47;100.00
70506;BME280;58032;49.820;6.274;2023-03-04T03:28:10;98319.16;;;-3.37;100.00
70506;BME280;58032;49.820;6.274;2023-03-04T03:30:37;98321.91;;;-3.37;100.00
70506;BME280;58032;49.820;6.274;2023-03-04T03:33:05;98315.34;;;-3.32;100.00
70506;BME280;58032;49.820;6.274;2023-03-04T03:35:32;98318.06;;;-3.20;100.00
70506;BME280;58032;49.820;6.274;2023-03-04T03:37:59;98317.44;;;-3.42;100.00
70506;BME280;58032;49.820;6.274;2023-03-04T03:40:26;98316.03;;;-3.36;100.00
70506;BME280;58032;49.820;6.274;2023-03-04T03:42:53;98318.50;;;-3.18;100.00
70506;BME280;58032;49.820;6.274;2023-03-04T03:45:20;98310.16;;;-2.93;100.00
70506;BME280;58032;49.820;6.274;2023-03-04T03:47:47;98321.75;;;-2.72;100.00
70506;BME280;58032;49.820;6.274;2023-03-04T03:50:14;98318.84;;;-2.63;100.00
70506;BME280;58032;49.820;6.274;2023-03-04T03:52:40;98318.16;;;-2.44;100.00
70506;BME280;58032;49.820;6.274;2023-03-04T03:55:08;98321.81;;;-2.24;100.00
70506;BME280;58032;49.820;6.274;2023-03-04T03:57:35;98311.56;;;-2.39;100.00
70506;BME280;58032;49.820;6.274;2023-03-04T04:00:03;98319.47;;;-2.38;100.00
70506;BME280;58032;49.820;6.274;2023-03-04T04:02:38;98320.13;;;-2.28;100.00
70506;BME280;58032;49.820;6.274;2023-03-04T04:05:06;98321.09;;;-2.36;100.00
70506;BME280;58032;49.820;6.274;2023-03-04T04:07:33;98318.25;;;-2.24;100.00
70506;BME280;58032;49.820;6.274;2023-03-04T04:10:00;98311.84;;;-2.12;100.00
70506;BME280;58032;49.820;6.274;2023-03-04T04:12:27;98298.84;;;-1.96;100.00
70506;BME280;58032;49.820;6.274;2023-03-04T04:14:54;98304.09;;;-1.91;100.00
70506;BME280;58032;49.820;6.274;2023-03-04T04:17:21;98311.03;;;-1.97;100.00
70506;BME280;58032;49.820;6.274;2023-03-04T04:19:48;98303.84;;;-2.01;100.00
70506;BME280;58032;49.820;6.274;2023-03-04T04:22:17;98301.63;;;-1.96;100.00
70506;BME280;58032;49.820;6.274;2023-03-04T04:24:44;98305.94;;;-1.95;100.00
70506;BME280;58032;49.820;6.274;2023-03-04T04:27:11;98296.88;;;-1.95;100.00
70506;BME280;58032;49.820;6.274;2023-03-04T04:29:38;98296.88;;;-1.95;100.00
70506;BME280;58032;49.820;6.274;2023-03-04T04:32:06;98288.16;;;-1.97;100.00
70506;BME280;58032;49.820;6.274;2023-03-04T04:34:33;98292.59;;;-1.93;100.00
70506;BME280;58032;49.820;6.274;2023-03-04T04:37:00;98296.19;;;-1.92;100.00
70506;BME280;58032;49.820;6.274;2023-03-04T04:39:26;98292.50;;;-1.80;100.00
70506;BME280;58032;49.820;6.274;2023-03-04T04:41:53;98292.84;;;-1.82;100.00
70506;BME280;58032;49.820;6.274;2023-03-04T04:44:20;98295.88;;;-1.87;100.00
70506;BME280;58032;49.820;6.274;2023-03-04T04:46:47;98299.09;;;-1.85;100.00
70506;BME280;58032;49.820;6.274;2023-03-04T04:49:14;98297.03;;;-1.88;100.00
70506;BME280;58032;49.820;6.274;2023-03-04T04:51:41;98299.44;;;-1.70;100.00
70506;BME280;58032;49.820;6.274;2023-03-04T04:54:08;98297.91;;;-1.84;100.00
70506;BME280;58032;49.820;6.274;2023-03-04T04:56:35;98296.59;;;-1.90;100.00
70506;BME280;58032;49.820;6.274;2023-03-04T04:59:04;98299.81;;;-1.88;100.00
70506;BME280;58032;49.820;6.274;2023-03-04T05:01:31;98298.81;;;-1.80;100.00
70506;BME280;58032;49.820;6.274;2023-03-04T05:03:58;98302.09;;;-1.74;100.00
70506;BME280;58032;49.820;6.274;2023-03-04T05:06:25;98305.38;;;-1.68;100.00
70506;BME280;58032;49.820;6.274;2023-03-04T05:08:52;98303.78;;;-1.69;100.00
70506;BME280;58032;49.820;6.274;2023-03-04T05:11:19;98308.22;;;-1.65;100.00
70506;BME280;58032;49.820;6.274;2023-03-04T05:13:47;98307.41;;;-1.65;100.00
70506;BME280;58032;49.820;6.274;2023-03-04T05:16:15;98306.91;;;-1.71;100.00
70506;BME280;58032;49.820;6.274;2023-03-04T05:18:42;98303.78;;;-1.69;100.00
70506;BME280;58032;49.820;6.274;2023-03-04T05:21:09;98301.38;;;-1.71;100.00
70506;BME280;58032;49.820;6.274;2023-03-04T05:23:38;98303.34;;;-1.71;100.00
70506;BME280;58032;49.820;6.274;2023-03-04T05:26:07;98306.19;;;-1.68;100.00
70506;BME280;58032;49.820;6.274;2023-03-04T05:28:35;98299.44;;;-1.70;100.00
70506;BME280;58032;49.820;6.274;2023-03-04T05:31:02;98302.28;;;-1.67;100.00
70506;BME280;58032;49.820;6.274;2023-03-04T05:33:29;98310.19;;;-1.65;100.00
70506;BME280;58032;49.820;6.274;2023-03-04T05:35:57;98314.91;;;-1.66;100.00
70506;BME280;58032;49.820;6.274;2023-03-04T05:38:24;98309.47;;;-1.62;100.00
70506;BME280;58032;49.820;6.274;2023-03-04T05:40:56;98313.03;;;-1.62;100.00
70506;BME280;58032;49.820;6.274;2023-03-04T05:43:25;98315.78;;;-1.62;100.00
70506;BME280;58032;49.820;6.274;2023-03-04T05:45:53;98311.09;;;-1.61;100.00
70506;BME280;58032;49.820;6.274;2023-03-04T05:48:21;98317.47;;;-1.57;100.00
70506;BME280;58032;49.820;6.274;2023-03-04T05:50:56;98319.88;;;-1.55;100.00
70506;BME280;58032;49.820;6.274;2023-03-04T05:53:23;98323.69;;;-1.60;100.00
70506;BME280;58032;49.820;6.274;2023-03-04T05:55:51;98315.00;;;-1.62;100.00
70506;BME280;58032;49.820;6.274;2023-03-04T05:58:18;98320.31;;;-1.53;100.00
70506;BME280;58032;49.820;6.274;2023-03-04T06:00:46;98319.53;;;-1.54;100.00
70506;BME280;58032;49.820;6.274;2023-03-04T06:03:18;98321.09;;;-1.53;100.00
70506;BME280;58032;49.820;6.274;2023-03-04T06:05:46;98319.53;;;-1.54;100.00
70506;BME280;58032;49.820;6.274;2023-03-04T06:08:13;98327.16;;;-1.47;100.00
70506;BME280;58032;49.820;6.274;2023-03-04T06:10:40;98319.22;;;-1.49;100.00
70506;BME280;58032;49.820;6.274;2023-03-04T06:13:08;98330.28;;;-1.49;100.00
70506;BME280;58032;49.820;6.274;2023-03-04T06:15:35;98324.75;;;-1.49;100.00
70506;BME280;58032;49.820;6.274;2023-03-04T06:18:02;98324.84;;;-1.45;100.00
70506;BME280;58032;49.820;6.274;2023-03-04T06:20:29;98331.81;;;-1.51;100.00
70506;BME280;58032;49.820;6.274;2023-03-04T06:22:56;98334.34;;;-1.42;100.00
70506;BME280;58032;49.820;6.274;2023-03-04T06:25:23;98338.56;;;-1.49;100.00
70506;BME280;58032;49.820;6.274;2023-03-04T06:27:50;98336.09;;;-1.54;100.00
70506;BME280;58032;49.820;6.274;2023-03-04T06:30:18;98338.41;;;-1.56;100.00
70506;BME280;58032;49.820;6.274;2023-03-04T06:32:45;98342.66;;;-1.42;100.00
70506;BME280;58032;49.820;6.274;2023-03-04T06:35:14;98337.56;;;-1.40;100.00
70506;BME280;58032;49.820;6.274;2023-03-04T06:37:42;98348.53;;;-1.44;100.00
70506;BME280;58032;49.820;6.274;2023-03-04T06:40:10;98346.94;;;-1.45;100.00
70506;BME280;58032;49.820;6.274;2023-03-04T06:42:37;98347.72;;;-1.45;100.00
70506;BME280;58032;49.820;6.274;2023-03-04T06:45:06;98346.94;;;-1.45;100.00
70506;BME280;58032;49.820;6.274;2023-03-04T06:47:33;98350.63;;;-1.37;100.00
70506;BME280;58032;49.820;6.274;2023-03-04T06:50:00;98356.53;;;-1.39;100.00
70506;BME280;58032;49.820;6.274;2023-03-04T06:52:26;98360.28;;;-1.47;100.00
70506;BME280;58032;49.820;6.274;2023-03-04T06:54:53;98357.69;;;-1.40;100.00
70506;BME280;58032;49.820;6.274;2023-03-04T06:57:20;98362.59;;;-1.33;100.00
70506;BME280;58032;49.820;6.274;2023-03-04T06:59:47;98359.34;;;-1.19;100.00
70506;BME280;58032;49.820;6.274;2023-03-04T07:02:14;98356.72;;;-1.12;100.00
70506;BME280;58032;49.820;6.274;2023-03-04T07:04:40;98359.97;;;-1.26;100.00
70506;BME280;58032;49.820;6.274;2023-03-04T07:07:07;98366.78;;;-1.04;100.00
70506;BME280;58032;49.820;6.274;2023-03-04T07:09:34;98360.44;;;-1.04;100.00
70506;BME280;58032;49.820;6.274;2023-03-04T07:12:01;98361.81;;;-0.94;100.00
70506;BME280;58032;49.820;6.274;2023-03-04T07:14:28;98366.25;;;-0.90;100.00
70506;BME280;58032;49.820;6.274;2023-03-04T07:16:56;98366.25;;;-0.90;100.00
70506;BME280;58032;49.820;6.274;2023-03-04T07:19:23;98374.63;;;-0.86;100.00
70506;BME280;58032;49.820;6.274;2023-03-04T07:21:50;98361.88;;;-0.91;100.00
70506;BME280;58032;49.820;6.274;2023-03-04T07:24:17;98365.38;;;-0.74;100.00
70506;BME280;58032;49.820;6.274;2023-03-04T07:26:44;98365.13;;;-0.69;100.00
70506;BME280;58032;49.820;6.274;2023-03-04T07:29:11;98367.72;;;-0.57;100.00
70506;BME280;58032;49.820;6.274;2023-03-04T07:31:39;98370.53;;;-0.53;100.00
70506;BME280;58032;49.820;6.274;2023-03-04T07:34:08;98361.28;;;-0.41;100.00
70506;BME280;58032;49.820;6.274;2023-03-04T07:36:36;98372.28;;;-0.45;100.00
70506;BME280;58032;49.820;6.274;2023-03-04T07:39:03;98369.59;;;-0.41;100.00
70506;BME280;58032;49.820;6.274;2023-03-04T07:41:30;98370.91;;;-0.55;100.00
70506;BME280;58032;49.820;6.274;2023-03-04T07:43:58;98375.00;;;-0.49;100.00
70506;BME280;58032;49.820;6.274;2023-03-04T07:46:25;98372.88;;;-0.36;100.00
70506;BME280;58032;49.820;6.274;2023-03-04T07:48:53;98367.09;;;-0.27;100.00
70506;BME280;58032;49.820;6.274;2023-03-04T07:51:23;98371.28;;;-0.13;100.00
70506;BME280;58032;49.820;6.274;2023-03-04T07:53:52;98368.16;;;-0.12;100.00
70506;BME280;58032;49.820;6.274;2023-03-04T07:56:22;98366.16;;;-0.11;100.00
70506;BME280;58032;49.820;6.274;2023-03-04T07:58:49;98377.13;;;-0.19;100.00
70506;BME280;58032;49.820;6.274;2023-03-04T08:01:25;98373.44;;;-0.03;100.00
70506;BME280;58032;49.820;6.274;2023-03-04T08:03:53;98371.38;;;-0.06;100.00
70506;BME280;58032;49.820;6.274;2023-03-04T08:06:20;98371.09;;;-0.01;100.00
70506;BME280;58032;49.820;6.274;2023-03-04T08:08:48;98381.47;;;0.06;100.00
70506;BME280;58032;49.820;6.274;2023-03-04T08:11:18;98376.66;;;-0.01;100.00
70506;BME280;58032;49.820;6.274;2023-03-04T08:13:46;98377.28;;;0.15;100.00
70506;BME280;58032;49.820;6.274;2023-03-04T08:16:15;98368.31;;;0.22;100.00
70506;BME280;58032;49.820;6.274;2023-03-04T08:18:43;98374.06;;;0.37;100.00
70506;BME280;58032;49.820;6.274;2023-03-04T08:21:11;98369.66;;;0.32;100.00
70506;BME280;58032;49.820;6.274;2023-03-04T08:23:40;98375.00;;;0.44;100.00
70506;BME280;58032;49.820;6.274;2023-03-04T08:26:20;98387.09;;;0.59;100.00
70506;BME280;58032;49.820;6.274;2023-03-04T08:28:47;98381.59;;;0.36;100.00
70506;BME280;58032;49.820;6.274;2023-03-04T08:31:16;98372.13;;;0.64;100.00
70506;BME280;58032;49.820;6.274;2023-03-04T08:33:44;98374.03;;;0.87;100.00
70506;BME280;58032;49.820;6.274;2023-03-04T08:36:13;98376.81;;;0.60;100.00
70506;BME280;58032;49.820;6.274;2023-03-04T08:38:39;98375.28;;;0.93;100.00
70506;BME280;58032;49.820;6.274;2023-03-04T08:41:06;98366.22;;;0.96;100.00
70506;BME280;58032;49.820;6.274;2023-03-04T08:43:33;98372.03;;;0.84;100.00
70506;BME280;58032;49.820;6.274;2023-03-04T08:46:01;98370.25;;;0.72;100.00
70506;BME280;58032;49.820;6.274;2023-03-04T08:48:28;98373.19;;;0.83;100.00
70506;BME280;58032;49.820;6.274;2023-03-04T08:50:55;98384.13;;;0.72;100.00
70506;BME280;58032;49.820;6.274;2023-03-04T08:53:22;98372.50;;;0.62;100.00
70506;BME280;58032;49.820;6.274;2023-03-04T08:55:50;98373.34;;;0.93;100.00
70506;BME280;58032;49.820;6.274;2023-03-04T08:58:17;98373.28;;;0.90;100.00
70506;BME280;58032;49.820;6.274;2023-03-04T09:00:46;98378.50;;;0.95;100.00
70506;BME280;58032;49.820;6.274;2023-03-04T09:03:15;98368.44;;;0.83;100.00
70506;BME280;58032;49.820;6.274;2023-03-04T09:05:44;98372.69;;;1.07;100.00
70506;BME280;58032;49.820;6.274;2023-03-04T09:08:11;98372.25;;;1.02;100.00
70506;BME280;58032;49.820;6.274;2023-03-04T09:10:39;98375.72;;;1.25;100.00
70506;BME280;58032;49.820;6.274;2023-03-04T09:13:06;98380.72;;;1.13;100.00
70506;BME280;58032;49.820;6.274;2023-03-04T09:15:33;98380.94;;;1.31;100.00
70506;BME280;58032;49.820;6.274;2023-03-04T09:18:04;98379.06;;;1.42;100.00
70506;BME280;58032;49.820;6.274;2023-03-04T09:20:32;98378.53;;;1.63;100.00
70506;BME280;58032;49.820;6.274;2023-03-04T09:22:59;98375.72;;;1.60;100.00
70506;BME280;58032;49.820;6.274;2023-03-04T09:25:26;98380.06;;;1.57;100.00
70506;BME280;58032;49.820;6.274;2023-03-04T09:27:53;98372.56;;;1.27;100.00
70506;BME280;58032;49.820;6.274;2023-03-04T09:30:20;98380.53;;;0.98;100.00
70506;BME280;58032;49.820;6.274;2023-03-04T09:32:47;98374.25;;;1.35;100.00
70506;BME280;58032;49.820;6.274;2023-03-04T09:35:14;98390.38;;;1.26;100.00
70506;BME280;58032;49.820;6.274;2023-03-04T09:37:41;98382.53;;;1.32;100.00
70506;BME280;58032;49.820;6.274;2023-03-04T09:40:10;98382.00;;;1.53;100.00
70506;BME280;58032;49.820;6.274;2023-03-04T09:42:45;98384.63;;;1.42;100.00
70506;BME280;58032;49.820;6.274;2023-03-04T09:45:18;98389.66;;;1.29;100.00
70506;BME280;58032;49.820;6.274;2023-03-04T09:47:47;98386.66;;;1.45;100.00
70506;BME280;58032;49.820;6.274;2023-03-04T09:50:15;98391.59;;;1.29;100.00
70506;BME280;58032;49.820;6.274;2023-03-04T09:52:53;98391.06;;;1.50;100.00
70506;BME280;58032;49.820;6.274;2023-03-04T09:55:30;98388.03;;;1.28;100.00
70506;BME280;58032;49.820;6.274;2023-03-04T09:58:06;98388.50;;;1.34;100.00
70506;BME280;58032;49.820;6.274;2023-03-04T10:03:48;98372.38;;;1.47;100.00
70506;BME280;58032;49.820;6.274;2023-03-04T10:06:19;98380.63;;;1.39;100.00
70506;BME280;58032;49.820;6.274;2023-03-04T10:08:55;98384.28;;;1.44;100.00
70506;BME280;58032;49.820;6.274;2023-03-04T10:16:56;98385.44;;;1.42;100.00
70506;BME280;58032;49.820;6.274;2023-03-04T10:22:20;98384.03;;;1.60;100.00
70506;BME280;58032;49.820;6.274;2023-03-04T10:24:55;98384.63;;;1.76;100.00
70506;BME280;58032;49.820;6.274;2023-03-04T10:27:22;98373.91;;;1.74;100.00
70506;BME280;58032;49.820;6.274;2023-03-04T10:29:50;98368.19;;;2.01;100.00
70506;BME280;58032;49.820;6.274;2023-03-04T10:32:19;98368.50;;;1.89;100.00
70506;BME280;58032;49.820;6.274;2023-03-04T10:34:46;98375.06;;;1.73;100.00
70506;BME280;58032;49.820;6.274;2023-03-04T10:37:13;98375.19;;;1.84;100.00
70506;BME280;58032;49.820;6.274;2023-03-04T10:39:44;98378.41;;;1.90;100.00
70506;BME280;58032;49.820;6.274;2023-03-04T10:44:57;98375.81;;;1.70;100.00
70506;BME280;58032;49.820;6.274;2023-03-04T10:47:30;98376.78;;;1.85;100.00
70506;BME280;58032;49.820;6.274;2023-03-04T10:50:03;98366.31;;;2.09;100.00
70506;BME280;58032;49.820;6.274;2023-03-04T10:52:34;98363.50;;;2.05;100.00
70506;BME280;58032;49.820;6.274;2023-03-04T10:55:05;98370.03;;;1.83;100.00
70506;BME280;58032;49.820;6.274;2023-03-04T10:57:42;98361.56;;;1.68;100.00
70506;BME280;58032;49.820;6.274;2023-03-04T11:02:46;98364.44;;;1.79;100.00
70506;BME280;58032;49.820;6.274;2023-03-04T11:07:52;98351.31;;;2.21;100.00
70506;BME280;58032;49.820;6.274;2023-03-04T11:10:51;98359.38;;;1.92;100.00
70506;BME280;58032;49.820;6.274;2023-03-04T11:13:23;98353.47;;;1.94;100.00
70506;BME280;58032;49.820;6.274;2023-03-04T11:16:04;98353.59;;;2.08;100.00
70506;BME280;58032;49.820;6.274;2023-03-04T11:18:54;98354.19;;;2.32;100.00
70506;BME280;58032;49.820;6.274;2023-03-04T11:21:25;98358.84;;;2.20;100.00
70506;BME280;58032;49.820;6.274;2023-03-04T11:24:03;98357.44;;;2.41;100.00
70506;BME280;58032;49.820;6.274;2023-03-04T11:26:46;98355.53;;;2.52;100.00
70506;BME280;58032;49.820;6.274;2023-03-04T11:32:13;98353.09;;;2.47;100.00
70506;BME280;58032;49.820;6.274;2023-03-04T11:34:53;98358.38;;;2.63;100.00
70506;BME280;58032;49.820;6.274;2023-03-04T11:40:17;98349.50;;;2.47;100.00
70506;BME280;58032;49.820;6.274;2023-03-04T11:43:06;98346.72;;;2.43;100.00
70506;BME280;58032;49.820;6.274;2023-03-04T11:45:58;98340.41;;;2.50;100.00
70506;BME280;58032;49.820;6.274;2023-03-04T11:48:48;98336.91;;;2.60;100.00
70506;BME280;58032;49.820;6.274;2023-03-04T11:51:27;98336.59;;;2.76;100.00
70506;BME280;58032;49.820;6.274;2023-03-04T11:54:42;98322.75;;;2.87;100.00
70506;BME280;58032;49.820;6.274;2023-03-04T11:57:22;98325.59;;;3.01;100.00
70506;BME280;58032;49.820;6.274;2023-03-04T12:00:00;98330.53;;;2.56;100.00
70506;BME280;58032;49.820;6.274;2023-03-04T12:05:45;98327.81;;;2.11;100.00
70506;BME280;58032;49.820;6.274;2023-03-04T12:11:01;98320.91;;;2.43;100.00
70506;BME280;58032;49.820;6.274;2023-03-04T12:13:46;98327.81;;;2.15;100.00
70506;BME280;58032;49.820;6.274;2023-03-04T12:27:51;98316.09;;;2.40;100.00
70506;BME280;58032;49.820;6.274;2023-03-04T12:30:33;98316.09;;;2.40;100.00
70506;BME280;58032;49.820;6.274;2023-03-04T12:36:02;98300.47;;;2.80;100.00
70506;BME280;58032;49.820;6.274;2023-03-04T12:41:48;98290.97;;;2.88;100.00
70506;BME280;58032;49.820;6.274;2023-03-04T12:44:21;98292.84;;;2.69;100.00
70506;BME280;58032;49.820;6.274;2023-03-04T12:50:02;98279.91;;;2.99;100.00
70506;BME280;58032;49.820;6.274;2023-03-04T12:52:19;98272.75;;;3.01;100.00
70506;BME280;58032;49.820;6.274;2023-03-04T12:54:50;98275.91;;;2.96;100.00
70506;BME280;58032;49.820;6.274;2023-03-04T12:57:19;98269.53;;;2.92;100.00
70506;BME280;58032;49.820;6.274;2023-03-04T13:02:33;98273.44;;;2.77;100.00
70506;BME280;58032;49.820;6.274;2023-03-04T13:05:17;98263.97;;;2.99;100.00
70506;BME280;58032;49.820;6.274;2023-03-04T13:07:56;98263.16;;;2.88;100.00
70506;BME280;58032;49.820;6.274;2023-03-04T13:10:26;98264.75;;;2.89;100.00
70506;BME280;58032;49.820;6.274;2023-03-04T13:12:58;98259.22;;;2.96;100.00
70506;BME280;58032;49.820;6.274;2023-03-04T13:15:28;98264.81;;;3.04;100.00
70506;BME280;58032;49.820;6.274;2023-03-04T13:17:57;98258.06;;;3.08;100.00
70506;BME280;58032;49.820;6.274;2023-03-04T13:22:58;98257.25;;;3.08;100.00
70506;BME280;58032;49.820;6.274;2023-03-04T13:25:41;98256.03;;;2.94;100.00
70506;BME280;58032;49.820;6.274;2023-03-04T13:30:41;98251.66;;;2.93;100.00
70506;BME280;58032;49.820;6.274;2023-03-04T13:43:35;98246.50;;;2.95;100.00
70506;BME280;58032;49.820;6.274;2023-03-04T13:51:40;98241.78;;;3.10;100.00
70506;BME280;58032;49.820;6.274;2023-03-04T13:57:18;98245.75;;;3.02;100.00
70506;BME280;58032;49.820;6.274;2023-03-04T13:59:54;98235.03;;;3.26;100.00
70506;BME280;58032;49.820;6.274;2023-03-04T14:02:24;98241.03;;;3.39;100.00
70506;BME280;58032;49.820;6.274;2023-03-04T14:04:59;98235.03;;;3.26;100.00
70506;BME280;58032;49.820;6.274;2023-03-04T14:07:32;98228.34;;;3.52;100.00
70506;BME280;58032;49.820;6.274;2023-03-04T14:12:35;98224.38;;;3.93;100.00
70506;BME280;58032;49.820;6.274;2023-03-04T14:15:15;98218.38;;;4.16;100.00
70506;BME280;58032;49.820;6.274;2023-03-04T14:17:50;98217.94;;;4.36;100.00
70506;BME280;58032;49.820;6.274;2023-03-04T14:20:25;98209.59;;;4.36;100.00
70506;BME280;58032;49.820;6.274;2023-03-04T14:22:53;98216.41;;;4.06;100.00
70506;BME280;58032;49.820;6.274;2023-03-04T14:27:47;98209.59;;;3.13;100.00
70506;BME280;58032;49.820;6.274;2023-03-04T14:30:25;98209.22;;;3.47;100.00
70506;BME280;58032;49.820;6.274;2023-03-04T14:33:16;98197.31;;;3.90;100.00